Create Custom Reports and Graphics: Custom Report

Latest Observations

Map

15 Minute Data

South County Map

Map

15 Minute Data

Northern Sonoma County Latest

23 Stations

15 Minute Data | America/Los_Angeles
as of 7/19/24 11:05 PM PDT
Station Date Time Temp (°F) RH (%) Dew Pt (°F) Wind Spd (mph) Wind Dir (°) Wind Gust (mph) Latest Rain (In) Daily Rain (In) Daily Min Temp (°F) Daily Max Temp (°F)
Rockpile Lower (Cooley) 7/19/24 2230 78.4   5.0 25   5 39.7   0.6 1.5   1.6 N | 349 4.7   0.8 0.00 0.00 69.6   7.7 96.3   1.2
Rockpile Upper (Cooley) 7/19/24 2300 72.8   4.3 32   4 41.5   1.1 15.9   4.6 NNW | 336 20.8   3.3 0.00 0.00 67.9   8.8 93.6   1.4
Cloverdale-East (Ranch 83) 7/19/24 2300 70.8   4.5 - - 0.1   1.2 W | 263 1.8   1.3 0.00 0.00 51.9   0.9 102.9   0.5
Cloverdale-SE (Ranch 38) 7/19/24 2300 80.6   4.0 28   2 44.9   1.5 4.4   1.4 NNW | 348 6.9   2.0 0.00 0.00 69.6   7.2 103.7   0.3
Geyserville-North (Hoffman) 7/19/24 2300 76.9   3.1 36   1 48.2   3.9 2.2   0.3 NNW | 344 4.3   0.7 0.00 0.00 51.9   1.9 104.1   1.2
Geyserville (Ranch 3) 7/19/24 2300 77.5   2.4 34   3 46.6   4.5 2.7   0.5 NW | 319 4.1   2.4 0.00 0.00 52.9   1.7 104.7   1.6
Geyserville-East (Ranch 40) 7/19/24 2300 79.8   4.1 31   1 46.8   2.8 4.8   0.1 NNW | 340 9.4   0.0 0.00 0.00 59.4   2.7 104.0   2.1
Geyserville-South (Nervo Station) 7/19/24 2300 79.7   8.5 - - 0.8   0.8 N | 0 3.4   3.4 0.00 0.00 53.8   1.4 106.6   3.6
Whitton Ranch (201e) 7/19/24 2300 75.8   8.7 37   21 47.4   4.1 2.4   1.8 NNW | 328 3.7   1.0 0.00 0.00 46.6   2.1 104.4   4.0
Lytton East (Shop Hill Bottom) 7/19/24 2300 80.9   15.1 27   33 43.4   7.8 2.2   1.1 WSW | 246 4.1   1.5 0.00 0.00 51.6   1.9 105.0   9.1
Lytton East (Hill 5) 7/19/24 2300 82.8   16.1 24   34 42.6   9.0 5.5   3.4 WNW | 283 9.6   5.9 0.00 0.00 53.2   0.0 103.8   8.4
Lytton West Lower (Lew 6) 7/19/24 2300 76.5   10.7 35   25 46.4   4.8 3.0   2.2 S | 182 7.8   4.4 0.00 0.00 50.0   1.3 104.1   8.7
Lytton West Hill (23PS) 7/19/24 2300 79.4   12.9 31   25 46.2   4.4 2.1   0.3 S | 189 3.2   2.2 0.00 0.00 52.1   0.3 104.9   10.4
Lytton (River Oaks) 7/19/24 2300 73.1   6.8 42   11 48.6   0.2 1.5   0.6 SE | 130 3.5   0.5 0.00 0.00 48.4   1.9 104.7   7.4
Lytton (River Oaks Remote) 7/19/24 2300 69.5   6.6 55   12 52.4   1.0 - - - - - 47.0   1.9 106.0   6.4
Jimtown-North (Piccolo Ranch 15) 7/19/24 2300 74.4   4.2 35   8 45.2   1.5 1.6   1.0 S | 191 3.1   0.4 0.00 0.00 50.6   2.8 104.5   6.0
Jimtown-NE (Red Fan) 7/19/24 2300 76.6   7.6 35   12 47.0   1.1 2.0   0.6 ESE | 113 4.2   1.4 0.00 0.00 51.8   2.2 105.4   5.1
HWY 128/Chalk Hill Rd (Landslide) 7/19/24 2300 67.1   4.7 59   12 52.3   0.8 0.1   0.0 NNW | 348 1.1   0.0 0.00 0.00 50.0   2.4 106.5   10.1
N Chalk Hill Rd (Ranch 63) 7/19/24 2300 67.2   2.9 57   7 51.5   0.2 0.6   0.4 NNE | 21 3.3   2.2 0.00 0.00 49.4   1.8 104.4   7.7
Knights Valley (Bavarian Lion) 7/19/24 2300 70.6   5.0 41   16 46.0   4.0 1.3   0.6 SSE | 152 3.0   0.1 0.00 0.00 50.2   2.8 104.7   5.6
Bavarian Lion EFW 7/19/24 2300 69.7   4.7 - - - - - 0.00 0.00 52.3   3.9 107.0   6.0
Upper Dry Creek Valley 7/19/24 2300 78.6   0.7 31   5 45.7   4.0 2.0   2.9 N | 1 4.3   5.3 0.00 0.00 50.6   0.6 102.5   0.4
Lower Dry Creek Valley 7/19/24 2300 72.8   6.9 44   16 49.8   1.8 3.9   1.3 SSE | 154 7.0   0.1 0.00 0.00 50.2   1.2 104.0   9.7
Max     82.8 59 52.4 15.9 - 20.8 0.00 0.00 69.6 107.0
Avg     75.3 37 46.6 2.9 - 5.4 0.00 - - -
Min     67.1 24 39.7 0.1 - 1.1 0.00 0.00 46.6 93.6

Central Sonoma County Latest

32 Stations

15 Minute Data | America/Los_Angeles
as of 7/19/24 11:06 PM PDT
Station Date Time Temp (°F) RH (%) Dew Pt (°F) Wind Spd (mph) Wind Dir (°) Wind Gust (mph) Latest Rain (In) Daily Rain (In) Daily Min Temp (°F) Daily Max Temp (°F)
Healdsburg-South (Sodini) 7/19/24 2300 70.5   8.7 45   22 48.4   2.3 1.0   1.0 SSE | 147 3.8   3.8 0.00 0.00 49.6   0.7 105.9   10.0
Windsor-East (Ranch 16) 7/19/24 2300 68.3   10.1 51   27 49.4   1.9 0.1   0.1 ESE | 122 1.2   1.2 0.00 0.00 47.6   1.6 104.7   13.3
Windsor-NW (Ranch 8) 7/19/24 2300 69.9   5.5 51   15 51.2   1.7 0.0   0.0 N | 0 0.0   0.0 0.00 0.00 52.4   0.6 107.7   13.2
Mark West-North (Ranch 14) 7/19/24 2300 69.4   4.5 47   11 48.5   1.6 1.7   0.6 WSW | 246 5.6   2.5 0.00 0.00 50.6   1.8 102.3   11.0
Windsor-SE (Silk Rd) 7/19/24 2130 75.7   9.8 40   22 49.6   2.9 0.7   0.1 SE | 134 3.3   0.2 0.00 0.00 48.4   1.0 105.6   15.5
Fulton-NW (Ranch 5) 7/19/24 2300 67.7   7.2 52   18 49.7   1.2 1.7   1.4 SE | 137 3.6   2.3 0.00 0.00 48.7   1.5 102.1   11.5
Windsor-South (Laughlin Rd) 7/19/24 2230 68.2   4.3 - - - - - 0.00 0.00 49.9   1.4 105.7   14.4
Fulton-SE (Barnes Rd) 7/19/24 2300 68.8   3.4 50   7 49.4   0.5 3.7   1.0 SE | 135 7.5   2.6 0.00 0.00 51.1   2.0 101.1   12.1
Fulton-SW (Ranch 21) 7/19/24 2300 65.5   4.9 - - 3.2   1.7 S | 170 6.1   3.3 0.00 0.00 49.9   1.7 101.4   12.0
Santa Rosa-NW (Goldfields) 7/19/24 2300 65.1   3.8 57   10 49.6   0.8 4.0   1.9 SSE | 166 8.0   3.5 0.00 0.00 50.4   2.1 104.2   13.1
Goldfields Remote 5/8/24 1630 84.1   13.4 - - - - - - - 68.0   2.4 84.5   12.8
NW Santa Rosa (Piner Road) 7/19/24 2300 64.5   3.7 62   9 51.4   0.3 1.9   1.5 SE | 125 5.3   3.0 0.00 0.00 48.6   2.2 103.7   14.9
River Rd South (Denner Ranch) 7/19/24 2300 62.1   3.7 64   12 49.8   1.0 3.9   2.3 SSE | 154 5.3   2.6 - - 47.8   0.9 105.1   16.2
West Santa Rosa (LOV Vineyard) 7/19/24 2300 64.1   4.3 60   11 49.8   0.3 1.2   1.0 SSE | 158 3.6   1.5 0.00 0.00 48.8   1.3 104.5   13.2
Guerneville Rd (Prokopakis) 7/19/24 2300 64.4   3.9 60   10 50.4   0.4 - - - 0.00 0.00 48.5   0.1 105.2   13.6
Guerneville Rd West (Balletto) 7/19/24 2300 63.8   4.7 65   11 51.7   0.1 2.0   1.0 SE | 142 5.7   3.6 0.00 0.00 48.5   0.9 104.7   17.0
Guerneville Rd East (Rich Ranch) 7/19/24 2300 64.2   3.8 58   9 49.0   0.5 - - - - - 48.6   2.4 103.5   11.7
Sanchietti Ranch 7/19/24 2300 62.7   3.7 67   7 51.7   0.7 3.5   1.4 SSE | 148 7.3   3.3 0.00 0.00 48.0   1.5 103.5   15.9
Occidental Rd (Sebastopol) 7/19/24 2300 60.0   3.5 77   14 52.8   1.1 2.5   1.6 SE | 133 5.9   3.5 0.00 0.00 47.6   1.2 101.7   14.0
Lower Westside Rd (Ranch 12) 7/19/24 2300 68.1   9.0 51   33 49.1   5.2 0.8   0.7 SE | 124 2.8   1.7 0.00 0.00 48.5   0.7 106.5   16.6
Guerneville (Laughlin Rd) 7/19/24 2300 61.3   4.3 69   9 51.1   1.0 0.0   0.3 SE | 139 1.0   0.1 0.00 0.00 47.3   0.7 105.5   13.4
Korbel (Winery) 7/19/24 2300 64.6   3.8 67   11 53.5   0.3 1.0   0.8 WNW | 301 2.4   0.7 0.00 0.00 50.4   0.3 105.2   8.6
Forestville (Shone Farms) 7/19/24 2300 65.9   3.8 57   9 50.3   0.5 2.0   0.2 E | 89 4.7   0.5 0.00 0.00 49.6   0.2 107.1   15.5
Forestville-NE (Ranch 30) 7/19/24 2300 65.7   5.5 61   14 51.9   0.2 0.5   0.4 NNW | 343 3.6   0.0 0.00 0.00 48.0   0.8 107.0   15.1
Green Valley Vineyard 7/19/24 2300 64.2   5.5 59   16 49.7   1.3 1.5   1.1 NE | 44 3.1   1.5 0.00 0.00 48.8   0.5 103.8   11.8
Green Valley (Sanchietti) 7/19/24 2300 63.5   6.3 - - - - - - - 47.4   0.9 105.1   18.4
Graton-West (Dutton Ranch) 7/19/24 2300 62.8   6.6 72   28 53.8   2.5 0.8   0.7 NNE | 12 2.2   1.0 0.00 0.00 47.1   1.6 103.5   14.0
Graton-South (Mill Station Rd) 7/19/24 2300 63.8   6.2 61   20 50.1   1.8 0.1   0.1 SSW | 201 2.8   2.7 0.00 0.00 45.8   1.7 100.7   15.1
Occidental (Horseshoe Bend) 7/19/24 2300 60.2   2.2 70   9 50.4   1.1 - - - 0.00 0.00 50.5   0.2 96.0   8.3
Sexton Valley (Jacqueline's Blk) 7/19/24 2300 63.2   7.3 66   20 51.7   0.3 1.3   0.9 SSW | 199 3.3   1.8 0.00 0.00 46.0   0.9 99.1   16.0
Sebastopol Hills (Burnside Rd) 7/19/24 2300 63.8   1.3 63   1 50.9   0.8 3.1   1.0 W | 259 6.9   2.5 0.00 0.00 51.7   0.1 97.7   15.0
Seaview/Fort Ross (Hirsch) 7/19/24 2300 76.9   5.2 28   2 41.1   2.7 5.5   1.5 N | 1 10.7   0.6 0.00 0.00 70.9   9.3 95.3   2.4
Max     76.9 77 53.8 5.5 - 10.7 0.00 0.00 70.9 107.7
Avg     65.4 59 50.2 1.9 - 4.5 0.00 - - -
Min     60.0 28 41.1 0.0 - 0.0 0.00 0.00 45.8 95.3

Southern Sonoma County Latest

20 Stations

15 Minute Data | America/Los_Angeles
as of 7/19/24 11:06 PM PDT
Station Date Time Temp (°F) RH (%) Dew Pt (°F) Wind Spd (mph) Wind Dir (°) Wind Gust (mph) Latest Rain (In) Daily Rain (In) Daily Min Temp (°F) Daily Max Temp (°F)
Upper Rincon Valley 7/19/24 2300 74.2   4.8 33   3 43.6   2.2 2.7   1.7 N | 6 3.8   0.5 0.00 0.00 63.8   6.6 100.4   10.5
Lower Bennett Valley 7/19/24 2300 60.6   5.6 66   17 49.1   0.9 0.3   0.5 NNE | 15 1.8   0.7 0.00 0.00 46.6   2.5 101.7   10.1
Kenwood (Wildwood) 7/19/24 2300 72.9   10.1 39   22 46.5   2.8 2.7   2.6 NNE | 17 4.3   3.5 0.00 0.00 51.6   3.4 104.2   5.8
Sonoma Valley (Bedrock) 7/19/24 2300 68.5   7.7 - 47.4   2.1 1.0   0.8 ESE | 111 3.1   1.0 0.00 0.00 49.2   2.4 103.5   9.2
Sonoma-West (Arnold) 6/11/24 1500 98.1   10.6 26   7 57.4   2.1 6.8   1.3 SW | 217 11.5   4.1 0.00 0.00 47.9   6.5 98.1   9.7
Sonoma Valley HS 4/23/24 0915 56.0   7.1 77   2 48.9   7.4 2.2   1.4 WSW | 241 5.5   2.9 0.00 0.00 49.3   0.2 56.4   7.8
Sonoma East (Bundschu01) 7/19/24 2300 68.2   5.7 48   13 47.7   1.2 2.6   0.5 SSE | 163 5.3   0.9 0.00 0.00 51.0   3.3 99.3   8.9
Schellville (Sasaki) 7/19/24 2300 67.6   5.3 50   17 48.4   2.8 9.9   8.4 SSW | 192 15.8   13.4 0.00 0.00 51.0   2.5 101.0   10.7
Sonoma-SE (Napoli) 7/19/24 2300 68.0   6.2 48   16 47.7   2.0 0.9   0.3 SW | 214 4.1   2.0 0.00 0.00 50.4   2.0 102.4   9.1
Ricci Vineyards (Carneros) 7/19/24 2300 68.9   6.9 62   15 55.5   0.7 4.0   1.4 NE | 43 8.6   4.6 0.00 0.00 51.1   1.7 100.9   11.6
Carneros (Ranch 71) 7/19/24 2300 68.2   4.5 65   12 56.1   0.4 2.9   0.4 NE | 44 7.1   0.7 0.00 0.00 56.7   3.4 99.4   12.9
Carneros Upper (Ranch 81) 7/19/24 2300 66.3   4.1 69   12 56.1   0.3 4.7   2.1 NNE | 33 6.7   2.9 - - 57.0   1.7 99.3   12.0
Carneros Lower (Ranch 81) 7/19/24 2300 65.8   5.8 72   12 56.5   1.5 1.9   1.8 N | 357 3.5   2.5 0.00 0.00 51.1   3.2 101.4   17.1
Rohnert Park-West (Stony Point) 7/19/24 2300 59.7   3.0 74   6 51.6   1.0 1.8   0.4 SSE | 148 3.5   0.1 0.00 0.00 47.4   2.6 94.2   11.6
Cartograph Wines Base 7/19/24 2300 57.8   0.5 77   1 50.5   0.8 1.1   5.3 S | 186 3.4   6.3 0.00 0.00 48.2   1.3 89.1   11.1
Cartograph Wines Remote 7/19/24 2300 58.1   1.6 - - - - - - - 47.4   0.9 100.7   12.4
Rice-Spivak Vineyard 7/19/24 2300 56.3   2.9 - - - - - - - 41.7   1.1 93.5   10.4
Penngrove (Asellus) 7/19/24 2300 56.9   2.4 79   1 50.4   1.9 0.2   0.0 SE | 124 1.0   0.7 0.00 0.00 48.1   2.4 97.5   10.0
Roger's Creek (Ranch 50) 7/19/24 2300 63.3   1.9 57   4 47.8   0.1 3.4   0.9 WSW | 251 6.4   0.9 0.00 0.00 55.7   2.9 97.9   8.7
Petaluma (Ranch 10) 7/19/24 2300 62.1   1.7 63   3 49.4   0.5 2.1   0.3 NNW | 338 4.8   1.1 0.00 0.00 48.6   1.3 98.9   7.1
Max     74.2 79 56.5 9.9 - 15.8 0.00 0.00 63.8 104.2
Avg     64.6 60 50.3 2.6 - 5.2 0.00 - - -
Min     56.3 33 43.6 0.2 - 1.0 0.00 0.00 41.7 89.1

Latest Observations

Map

Hourly Data